sensor_id;sensor_type;location;lat;lon;timestamp;temperature;humidity
14079;DHT22;7115;50.150;8.568;2024-02-28T00:00:14;8.10;99.90
14079;DHT22;7115;50.150;8.568;2024-02-28T00:02:41;8.10;99.90
14079;DHT22;7115;50.150;8.568;2024-02-28T00:05:09;8.00;99.90
14079;DHT22;7115;50.150;8.568;2024-02-28T00:07:36;8.00;99.90
14079;DHT22;7115;50.150;8.568;2024-02-28T00:10:04;8.00;99.90
14079;DHT22;7115;50.150;8.568;2024-02-28T00:12:31;8.00;99.90
14079;DHT22;7115;50.150;8.568;2024-02-28T00:14:57;8.00;99.90
14079;DHT22;7115;50.150;8.568;2024-02-28T00:17:25;8.00;99.90
14079;DHT22;7115;50.150;8.568;2024-02-28T00:19:52;8.00;99.90
14079;DHT22;7115;50.150;8.568;2024-02-28T00:22:20;8.00;99.90
14079;DHT22;7115;50.150;8.568;2024-02-28T00:24:47;8.00;99.90
14079;DHT22;7115;50.150;8.568;2024-02-28T00:27:15;8.00;99.90
14079;DHT22;7115;50.150;8.568;2024-02-28T00:29:42;8.00;99.90
14079;DHT22;7115;50.150;8.568;2024-02-28T00:32:09;8.00;99.90
14079;DHT22;7115;50.150;8.568;2024-02-28T00:34:36;8.00;99.90
14079;DHT22;7115;50.150;8.568;2024-02-28T00:37:03;7.90;99.90
14079;DHT22;7115;50.150;8.568;2024-02-28T00:39:31;7.80;99.90
14079;DHT22;7115;50.150;8.568;2024-02-28T00:41:58;7.70;99.90
14079;DHT22;7115;50.150;8.568;2024-02-28T00:44:25;7.60;99.90
14079;DHT22;7115;50.150;8.568;2024-02-28T00:46:52;7.50;99.90
14079;DHT22;7115;50.150;8.568;2024-02-28T00:49:19;7.40;99.90
14079;DHT22;7115;50.150;8.568;2024-02-28T00:51:46;7.40;99.90
14079;DHT22;7115;50.150;8.568;2024-02-28T00:54:13;7.40;99.90
14079;DHT22;7115;50.150;8.568;2024-02-28T00:56:41;7.40;99.90
14079;DHT22;7115;50.150;8.568;2024-02-28T00:59:08;7.40;99.90
14079;DHT22;7115;50.150;8.568;2024-02-28T01:01:37;7.30;99.90
14079;DHT22;7115;50.150;8.568;2024-02-28T01:04:05;7.30;99.90
14079;DHT22;7115;50.150;8.568;2024-02-28T01:06:32;7.30;99.90
14079;DHT22;7115;50.150;8.568;2024-02-28T01:08:59;7.30;99.90
14079;DHT22;7115;50.150;8.568;2024-02-28T01:11:26;7.30;99.90
14079;DHT22;7115;50.150;8.568;2024-02-28T01:13:54;7.20;99.90
14079;DHT22;7115;50.150;8.568;2024-02-28T01:16:21;7.20;99.90
14079;DHT22;7115;50.150;8.568;2024-02-28T01:18:48;7.20;99.90
14079;DHT22;7115;50.150;8.568;2024-02-28T01:21:15;7.20;99.90
14079;DHT22;7115;50.150;8.568;2024-02-28T01:23:42;7.20;99.90
14079;DHT22;7115;50.150;8.568;2024-02-28T01:26:09;7.10;99.90
14079;DHT22;7115;50.150;8.568;2024-02-28T01:28:36;7.10;99.90
14079;DHT22;7115;50.150;8.568;2024-02-28T01:31:04;7.10;99.90
14079;DHT22;7115;50.150;8.568;2024-02-28T01:33:32;7.00;99.90
14079;DHT22;7115;50.150;8.568;2024-02-28T01:35:59;7.00;99.90
14079;DHT22;7115;50.150;8.568;2024-02-28T01:38:26;6.90;99.90
14079;DHT22;7115;50.150;8.568;2024-02-28T01:40:53;6.90;99.90
14079;DHT22;7115;50.150;8.568;2024-02-28T01:43:20;6.90;99.90
14079;DHT22;7115;50.150;8.568;2024-02-28T01:45:47;6.80;99.90
14079;DHT22;7115;50.150;8.568;2024-02-28T01:48:16;6.80;99.90
14079;DHT22;7115;50.150;8.568;2024-02-28T01:50:44;6.70;99.90
14079;DHT22;7115;50.150;8.568;2024-02-28T01:53:11;6.70;99.90
14079;DHT22;7115;50.150;8.568;2024-02-28T01:55:40;6.70;99.90
14079;DHT22;7115;50.150;8.568;2024-02-28T01:58:09;6.70;99.90
14079;DHT22;7115;50.150;8.568;2024-02-28T02:00:36;6.70;99.90
14079;DHT22;7115;50.150;8.568;2024-02-28T02:03:04;6.60;99.90
14079;DHT22;7115;50.150;8.568;2024-02-28T02:05:33;6.60;99.90
14079;DHT22;7115;50.150;8.568;2024-02-28T02:08:00;6.50;99.90
14079;DHT22;7115;50.150;8.568;2024-02-28T02:10:28;6.40;99.90
14079;DHT22;7115;50.150;8.568;2024-02-28T02:12:55;6.40;99.90
14079;DHT22;7115;50.150;8.568;2024-02-28T02:15:22;6.30;99.90
14079;DHT22;7115;50.150;8.568;2024-02-28T02:17:49;6.20;99.90
14079;DHT22;7115;50.150;8.568;2024-02-28T02:20:17;6.20;99.90
14079;DHT22;7115;50.150;8.568;2024-02-28T02:22:47;6.10;99.90
14079;DHT22;7115;50.150;8.568;2024-02-28T02:25:14;6.10;99.90
14079;DHT22;7115;50.150;8.568;2024-02-28T02:27:41;6.00;99.90
14079;DHT22;7115;50.150;8.568;2024-02-28T02:30:09;6.00;99.90
14079;DHT22;7115;50.150;8.568;2024-02-28T02:32:36;6.00;99.90
14079;DHT22;7115;50.150;8.568;2024-02-28T02:35:03;5.90;99.90
14079;DHT22;7115;50.150;8.568;2024-02-28T02:37:31;5.90;99.90
14079;DHT22;7115;50.150;8.568;2024-02-28T02:39:59;5.90;99.90
14079;DHT22;7115;50.150;8.568;2024-02-28T02:42:26;5.90;99.90
14079;DHT22;7115;50.150;8.568;2024-02-28T02:44:53;5.90;99.90
14079;DHT22;7115;50.150;8.568;2024-02-28T02:47:20;5.80;99.90
14079;DHT22;7115;50.150;8.568;2024-02-28T02:49:47;5.80;99.90
14079;DHT22;7115;50.150;8.568;2024-02-28T02:52:14;5.80;99.90
14079;DHT22;7115;50.150;8.568;2024-02-28T02:54:41;5.80;99.90
14079;DHT22;7115;50.150;8.568;2024-02-28T02:57:09;5.70;99.90
14079;DHT22;7115;50.150;8.568;2024-02-28T02:59:36;5.70;99.90
14079;DHT22;7115;50.150;8.568;2024-02-28T03:02:03;5.70;99.90
14079;DHT22;7115;50.150;8.568;2024-02-28T03:04:30;5.70;99.90
14079;DHT22;7115;50.150;8.568;2024-02-28T03:06:57;5.70;99.90
14079;DHT22;7115;50.150;8.568;2024-02-28T03:09:24;5.60;99.90
14079;DHT22;7115;50.150;8.568;2024-02-28T03:11:51;5.50;99.90
14079;DHT22;7115;50.150;8.568;2024-02-28T03:14:20;5.50;99.90
14079;DHT22;7115;50.150;8.568;2024-02-28T03:16:48;5.50;99.90
14079;DHT22;7115;50.150;8.568;2024-02-28T03:19:16;5.40;99.90
14079;DHT22;7115;50.150;8.568;2024-02-28T03:21:42;5.40;99.90
14079;DHT22;7115;50.150;8.568;2024-02-28T03:24:09;5.30;99.90
14079;DHT22;7115;50.150;8.568;2024-02-28T03:26:36;5.20;99.90
14079;DHT22;7115;50.150;8.568;2024-02-28T03:29:03;5.20;99.90
14079;DHT22;7115;50.150;8.568;2024-02-28T03:31:32;5.10;99.90
14079;DHT22;7115;50.150;8.568;2024-02-28T03:33:59;5.10;99.90
14079;DHT22;7115;50.150;8.568;2024-02-28T03:36:27;5.10;99.90
14079;DHT22;7115;50.150;8.568;2024-02-28T03:38:54;5.00;99.90
14079;DHT22;7115;50.150;8.568;2024-02-28T03:41:22;5.10;99.90
14079;DHT22;7115;50.150;8.568;2024-02-28T03:43:49;5.00;99.90
14079;DHT22;7115;50.150;8.568;2024-02-28T03:46:16;5.00;99.90
14079;DHT22;7115;50.150;8.568;2024-02-28T03:48:44;5.00;99.90
14079;DHT22;7115;50.150;8.568;2024-02-28T03:51:11;4.90;99.90
14079;DHT22;7115;50.150;8.568;2024-02-28T03:53:38;4.90;99.90
14079;DHT22;7115;50.150;8.568;2024-02-28T03:56:07;4.90;99.90
14079;DHT22;7115;50.150;8.568;2024-02-28T03:58:33;4.80;99.90
14079;DHT22;7115;50.150;8.568;2024-02-28T04:01:00;4.80;99.90
14079;DHT22;7115;50.150;8.568;2024-02-28T04:03:27;4.80;99.90
14079;DHT22;7115;50.150;8.568;2024-02-28T04:05:56;4.70;99.90
14079;DHT22;7115;50.150;8.568;2024-02-28T04:08:23;4.70;99.90
14079;DHT22;7115;50.150;8.568;2024-02-28T04:10:50;4.70;99.90
14079;DHT22;7115;50.150;8.568;2024-02-28T04:13:17;4.70;99.90
14079;DHT22;7115;50.150;8.568;2024-02-28T04:15:44;4.70;99.90
14079;DHT22;7115;50.150;8.568;2024-02-28T04:18:13;4.60;99.90
14079;DHT22;7115;50.150;8.568;2024-02-28T04:20:40;4.60;99.90
14079;DHT22;7115;50.150;8.568;2024-02-28T04:23:08;4.60;99.90
14079;DHT22;7115;50.150;8.568;2024-02-28T04:25:35;4.60;99.90
14079;DHT22;7115;50.150;8.568;2024-02-28T04:28:03;4.60;99.90
14079;DHT22;7115;50.150;8.568;2024-02-28T04:30:30;4.60;99.90
14079;DHT22;7115;50.150;8.568;2024-02-28T04:32:57;4.50;99.90
14079;DHT22;7115;50.150;8.568;2024-02-28T04:35:24;4.50;99.90
14079;DHT22;7115;50.150;8.568;2024-02-28T04:37:51;4.50;99.90
14079;DHT22;7115;50.150;8.568;2024-02-28T04:40:19;4.50;99.90
14079;DHT22;7115;50.150;8.568;2024-02-28T04:42:46;4.50;99.90
14079;DHT22;7115;50.150;8.568;2024-02-28T04:45:13;4.50;99.90
14079;DHT22;7115;50.150;8.568;2024-02-28T04:47:40;4.50;99.90
14079;DHT22;7115;50.150;8.568;2024-02-28T04:50:11;4.50;99.90
14079;DHT22;7115;50.150;8.568;2024-02-28T04:52:38;4.50;99.90
14079;DHT22;7115;50.150;8.568;2024-02-28T04:55:05;4.40;99.90
14079;DHT22;7115;50.150;8.568;2024-02-28T04:57:34;4.40;99.90
14079;DHT22;7115;50.150;8.568;2024-02-28T05:00:01;4.40;99.90
14079;DHT22;7115;50.150;8.568;2024-02-28T05:02:28;4.40;99.90
14079;DHT22;7115;50.150;8.568;2024-02-28T05:04:55;4.30;99.90
14079;DHT22;7115;50.150;8.568;2024-02-28T05:07:22;4.30;99.90
14079;DHT22;7115;50.150;8.568;2024-02-28T05:09:49;4.20;99.90
14079;DHT22;7115;50.150;8.568;2024-02-28T05:12:16;4.30;99.90
14079;DHT22;7115;50.150;8.568;2024-02-28T05:14:44;4.20;99.90
14079;DHT22;7115;50.150;8.568;2024-02-28T05:17:12;4.30;99.90
14079;DHT22;7115;50.150;8.568;2024-02-28T05:19:39;4.20;99.90
14079;DHT22;7115;50.150;8.568;2024-02-28T05:22:06;4.20;99.90
14079;DHT22;7115;50.150;8.568;2024-02-28T05:24:33;4.20;99.90
14079;DHT22;7115;50.150;8.568;2024-02-28T05:27:00;4.20;99.90
14079;DHT22;7115;50.150;8.568;2024-02-28T05:29:27;4.20;99.90
14079;DHT22;7115;50.150;8.568;2024-02-28T05:31:56;4.10;99.90
14079;DHT22;7115;50.150;8.568;2024-02-28T05:34:23;4.10;99.90
14079;DHT22;7115;50.150;8.568;2024-02-28T05:36:49;4.10;99.90
14079;DHT22;7115;50.150;8.568;2024-02-28T05:39:17;4.00;99.90
14079;DHT22;7115;50.150;8.568;2024-02-28T05:41:44;4.00;99.90
14079;DHT22;7115;50.150;8.568;2024-02-28T05:44:11;3.90;99.90
14079;DHT22;7115;50.150;8.568;2024-02-28T05:46:38;3.90;99.90
14079;DHT22;7115;50.150;8.568;2024-02-28T05:49:07;3.80;99.90
14079;DHT22;7115;50.150;8.568;2024-02-28T05:51:34;3.70;99.90
14079;DHT22;7115;50.150;8.568;2024-02-28T05:54:03;3.70;99.90
14079;DHT22;7115;50.150;8.568;2024-02-28T05:56:30;3.60;99.90
14079;DHT22;7115;50.150;8.568;2024-02-28T05:58:57;3.60;99.90
14079;DHT22;7115;50.150;8.568;2024-02-28T06:01:24;3.60;99.90
14079;DHT22;7115;50.150;8.568;2024-02-28T06:03:51;3.60;99.90
14079;DHT22;7115;50.150;8.568;2024-02-28T06:06:21;3.60;99.90
14079;DHT22;7115;50.150;8.568;2024-02-28T06:08:48;3.50;99.90
14079;DHT22;7115;50.150;8.568;2024-02-28T06:11:15;3.60;99.90
14079;DHT22;7115;50.150;8.568;2024-02-28T06:13:43;3.60;99.90
14079;DHT22;7115;50.150;8.568;2024-02-28T06:16:13;3.60;99.90
14079;DHT22;7115;50.150;8.568;2024-02-28T06:18:41;3.60;99.90
14079;DHT22;7115;50.150;8.568;2024-02-28T06:21:08;3.60;99.90
14079;DHT22;7115;50.150;8.568;2024-02-28T06:23:36;3.70;99.90
14079;DHT22;7115;50.150;8.568;2024-02-28T06:26:03;3.70;99.90
14079;DHT22;7115;50.150;8.568;2024-02-28T06:28:30;3.80;99.90
14079;DHT22;7115;50.150;8.568;2024-02-28T06:30:59;3.80;99.90
14079;DHT22;7115;50.150;8.568;2024-02-28T06:33:26;3.90;99.90
14079;DHT22;7115;50.150;8.568;2024-02-28T06:35:53;4.00;99.90
14079;DHT22;7115;50.150;8.568;2024-02-28T06:38:20;4.10;99.90
14079;DHT22;7115;50.150;8.568;2024-02-28T06:40:48;4.30;99.90
14079;DHT22;7115;50.150;8.568;2024-02-28T06:43:15;4.50;99.90
14079;DHT22;7115;50.150;8.568;2024-02-28T06:45:43;4.70;99.90
14079;DHT22;7115;50.150;8.568;2024-02-28T06:48:10;5.00;99.90
14079;DHT22;7115;50.150;8.568;2024-02-28T06:50:37;5.20;99.90
14079;DHT22;7115;50.150;8.568;2024-02-28T06:53:04;5.60;99.90
14079;DHT22;7115;50.150;8.568;2024-02-28T06:55:31;5.90;99.90
14079;DHT22;7115;50.150;8.568;2024-02-28T06:57:59;6.20;99.90
14079;DHT22;7115;50.150;8.568;2024-02-28T07:00:26;6.40;99.90
14079;DHT22;7115;50.150;8.568;2024-02-28T07:02:53;6.60;99.90
14079;DHT22;7115;50.150;8.568;2024-02-28T07:05:21;6.80;99.90
14079;DHT22;7115;50.150;8.568;2024-02-28T07:07:48;7.10;99.90
14079;DHT22;7115;50.150;8.568;2024-02-28T07:10:15;7.40;99.90
14079;DHT22;7115;50.150;8.568;2024-02-28T07:12:42;7.60;99.90
14079;DHT22;7115;50.150;8.568;2024-02-28T07:15:10;7.50;99.90
14079;DHT22;7115;50.150;8.568;2024-02-28T07:17:37;7.50;99.90
14079;DHT22;7115;50.150;8.568;2024-02-28T07:20:05;7.50;99.90
14079;DHT22;7115;50.150;8.568;2024-02-28T07:22:33;7.40;99.90
14079;DHT22;7115;50.150;8.568;2024-02-28T07:25:00;7.40;99.90
14079;DHT22;7115;50.150;8.568;2024-02-28T07:27:28;7.40;99.90
14079;DHT22;7115;50.150;8.568;2024-02-28T07:29:55;7.50;99.90
14079;DHT22;7115;50.150;8.568;2024-02-28T07:32:23;7.60;99.90
14079;DHT22;7115;50.150;8.568;2024-02-28T07:34:50;7.80;99.90
14079;DHT22;7115;50.150;8.568;2024-02-28T07:37:17;8.00;99.90
14079;DHT22;7115;50.150;8.568;2024-02-28T07:39:44;8.20;99.90
14079;DHT22;7115;50.150;8.568;2024-02-28T07:42:11;8.30;99.90
14079;DHT22;7115;50.150;8.568;2024-02-28T07:44:38;8.30;99.90
14079;DHT22;7115;50.150;8.568;2024-02-28T07:47:06;8.30;99.90
14079;DHT22;7115;50.150;8.568;2024-02-28T07:49:34;8.30;99.90
14079;DHT22;7115;50.150;8.568;2024-02-28T07:52:01;8.40;99.90
14079;DHT22;7115;50.150;8.568;2024-02-28T07:54:28;8.50;99.90
14079;DHT22;7115;50.150;8.568;2024-02-28T07:56:55;8.70;99.90
14079;DHT22;7115;50.150;8.568;2024-02-28T07:59:22;8.90;99.90
14079;DHT22;7115;50.150;8.568;2024-02-28T08:01:49;9.00;99.90
14079;DHT22;7115;50.150;8.568;2024-02-28T08:04:17;9.20;99.90
14079;DHT22;7115;50.150;8.568;2024-02-28T08:06:45;9.50;99.90
14079;DHT22;7115;50.150;8.568;2024-02-28T08:09:12;9.80;99.90
14079;DHT22;7115;50.150;8.568;2024-02-28T08:11:39;10.00;99.90
14079;DHT22;7115;50.150;8.568;2024-02-28T08:14:07;10.30;99.90
14079;DHT22;7115;50.150;8.568;2024-02-28T08:16:34;10.60;99.90
14079;DHT22;7115;50.150;8.568;2024-02-28T08:19:01;10.90;99.90
14079;DHT22;7115;50.150;8.568;2024-02-28T08:21:28;10.70;99.90
14079;DHT22;7115;50.150;8.568;2024-02-28T08:23:57;10.50;99.90
14079;DHT22;7115;50.150;8.568;2024-02-28T08:26:25;10.10;99.90
14079;DHT22;7115;50.150;8.568;2024-02-28T08:28:52;9.60;99.90
14079;DHT22;7115;50.150;8.568;2024-02-28T08:31:19;9.10;99.90
14079;DHT22;7115;50.150;8.568;2024-02-28T08:33:46;8.70;99.90
14079;DHT22;7115;50.150;8.568;2024-02-28T08:36:13;8.30;99.90
14079;DHT22;7115;50.150;8.568;2024-02-28T08:38:40;7.90;99.90
14079;DHT22;7115;50.150;8.568;2024-02-28T08:41:08;7.70;99.90
14079;DHT22;7115;50.150;8.568;2024-02-28T08:43:37;7.50;99.90
14079;DHT22;7115;50.150;8.568;2024-02-28T08:46:05;7.40;99.90
14079;DHT22;7115;50.150;8.568;2024-02-28T08:48:32;7.20;99.90
14079;DHT22;7115;50.150;8.568;2024-02-28T08:50:59;7.00;99.90
14079;DHT22;7115;50.150;8.568;2024-02-28T08:53:26;6.90;99.90
14079;DHT22;7115;50.150;8.568;2024-02-28T08:55:53;6.90;99.90
14079;DHT22;7115;50.150;8.568;2024-02-28T08:58:22;6.80;99.90
14079;DHT22;7115;50.150;8.568;2024-02-28T09:00:49;6.90;99.90
14079;DHT22;7115;50.150;8.568;2024-02-28T09:03:16;6.90;99.90
14079;DHT22;7115;50.150;8.568;2024-02-28T09:05:43;7.10;99.90
14079;DHT22;7115;50.150;8.568;2024-02-28T09:08:10;7.30;99.90
14079;DHT22;7115;50.150;8.568;2024-02-28T09:10:40;7.60;99.90
14079;DHT22;7115;50.150;8.568;2024-02-28T09:13:07;7.90;99.90
14079;DHT22;7115;50.150;8.568;2024-02-28T09:15:38;8.10;99.90
14079;DHT22;7115;50.150;8.568;2024-02-28T09:18:05;8.20;99.90
14079;DHT22;7115;50.150;8.568;2024-02-28T09:20:32;8.40;99.90
14079;DHT22;7115;50.150;8.568;2024-02-28T09:22:59;8.60;99.90
14079;DHT22;7115;50.150;8.568;2024-02-28T09:25:26;8.70;99.90
14079;DHT22;7115;50.150;8.568;2024-02-28T09:27:55;8.70;99.90
14079;DHT22;7115;50.150;8.568;2024-02-28T09:30:22;8.70;99.90
14079;DHT22;7115;50.150;8.568;2024-02-28T09:32:54;8.70;99.90
14079;DHT22;7115;50.150;8.568;2024-02-28T09:35:21;8.70;99.90
14079;DHT22;7115;50.150;8.568;2024-02-28T09:37:48;8.60;99.90
14079;DHT22;7115;50.150;8.568;2024-02-28T09:40:15;8.50;99.90
14079;DHT22;7115;50.150;8.568;2024-02-28T09:42:47;8.50;99.90
14079;DHT22;7115;50.150;8.568;2024-02-28T09:45:17;8.40;99.90
14079;DHT22;7115;50.150;8.568;2024-02-28T09:47:44;8.30;99.90
14079;DHT22;7115;50.150;8.568;2024-02-28T09:50:13;8.40;99.90
14079;DHT22;7115;50.150;8.568;2024-02-28T09:52:40;8.50;99.90
14079;DHT22;7115;50.150;8.568;2024-02-28T09:55:08;8.60;99.90
14079;DHT22;7115;50.150;8.568;2024-02-28T09:57:35;8.50;99.90
14079;DHT22;7115;50.150;8.568;2024-02-28T10:00:04;8.60;99.90
14079;DHT22;7115;50.150;8.568;2024-02-28T10:02:31;8.90;99.90
14079;DHT22;7115;50.150;8.568;2024-02-28T10:05:01;9.40;99.90
14079;DHT22;7115;50.150;8.568;2024-02-28T10:07:32;10.00;99.90
14079;DHT22;7115;50.150;8.568;2024-02-28T10:09:59;10.60;99.90
14079;DHT22;7115;50.150;8.568;2024-02-28T10:12:26;10.80;99.90
14079;DHT22;7115;50.150;8.568;2024-02-28T10:14:53;11.10;99.90
14079;DHT22;7115;50.150;8.568;2024-02-28T10:17:20;11.10;99.90
14079;DHT22;7115;50.150;8.568;2024-02-28T10:19:47;10.90;99.90
14079;DHT22;7115;50.150;8.568;2024-02-28T10:22:14;10.60;99.90
14079;DHT22;7115;50.150;8.568;2024-02-28T10:24:42;10.50;99.90
14079;DHT22;7115;50.150;8.568;2024-02-28T10:27:09;10.70;99.90
14079;DHT22;7115;50.150;8.568;2024-02-28T10:29:36;11.10;99.90
14079;DHT22;7115;50.150;8.568;2024-02-28T10:32:04;11.60;99.90
14079;DHT22;7115;50.150;8.568;2024-02-28T10:34:33;12.10;99.90
14079;DHT22;7115;50.150;8.568;2024-02-28T10:37:02;12.60;99.90
14079;DHT22;7115;50.150;8.568;2024-02-28T10:39:31;12.70;99.90
14079;DHT22;7115;50.150;8.568;2024-02-28T10:42:02;12.90;99.90
14079;DHT22;7115;50.150;8.568;2024-02-28T10:44:30;13.40;99.90
14079;DHT22;7115;50.150;8.568;2024-02-28T10:47:00;13.90;99.90
14079;DHT22;7115;50.150;8.568;2024-02-28T10:49:28;14.30;99.50
14079;DHT22;7115;50.150;8.568;2024-02-28T10:51:57;14.50;99.00
14079;DHT22;7115;50.150;8.568;2024-02-28T10:54:29;14.70;98.70
14079;DHT22;7115;50.150;8.568;2024-02-28T10:56:57;15.00;98.30
14079;DHT22;7115;50.150;8.568;2024-02-28T10:59:28;15.20;98.10
14079;DHT22;7115;50.150;8.568;2024-02-28T11:01:56;15.40;97.80
14079;DHT22;7115;50.150;8.568;2024-02-28T11:04:23;15.70;97.50
14079;DHT22;7115;50.150;8.568;2024-02-28T11:06:54;16.00;97.10
14079;DHT22;7115;50.150;8.568;2024-02-28T11:09:23;16.10;96.60
14079;DHT22;7115;50.150;8.568;2024-02-28T11:11:51;16.10;96.30
14079;DHT22;7115;50.150;8.568;2024-02-28T11:14:18;16.20;96.20
14079;DHT22;7115;50.150;8.568;2024-02-28T11:17:01;16.40;95.90
14079;DHT22;7115;50.150;8.568;2024-02-28T11:19:28;16.30;95.40
14079;DHT22;7115;50.150;8.568;2024-02-28T11:21:58;16.10;95.50
14079;DHT22;7115;50.150;8.568;2024-02-28T11:24:29;16.00;95.50
14079;DHT22;7115;50.150;8.568;2024-02-28T11:26:57;16.00;95.40
14079;DHT22;7115;50.150;8.568;2024-02-28T11:29:25;15.90;95.50
14079;DHT22;7115;50.150;8.568;2024-02-28T11:31:53;15.90;95.30
14079;DHT22;7115;50.150;8.568;2024-02-28T11:34:22;15.70;95.30
14079;DHT22;7115;50.150;8.568;2024-02-28T11:36:49;15.40;95.30
14079;DHT22;7115;50.150;8.568;2024-02-28T11:39:17;15.10;95.70
14079;DHT22;7115;50.150;8.568;2024-02-28T11:41:44;14.80;95.70
14079;DHT22;7115;50.150;8.568;2024-02-28T11:44:16;14.70;95.90
14079;DHT22;7115;50.150;8.568;2024-02-28T11:46:44;14.40;95.90
14079;DHT22;7115;50.150;8.568;2024-02-28T11:49:11;14.10;96.00
14079;DHT22;7115;50.150;8.568;2024-02-28T11:51:41;13.90;96.30
14079;DHT22;7115;50.150;8.568;2024-02-28T11:54:10;13.70;96.30
14079;DHT22;7115;50.150;8.568;2024-02-28T11:56:37;13.40;96.40
14079;DHT22;7115;50.150;8.568;2024-02-28T11:59:05;13.20;96.60
14079;DHT22;7115;50.150;8.568;2024-02-28T12:01:34;13.10;96.80
14079;DHT22;7115;50.150;8.568;2024-02-28T12:04:03;13.10;96.90
14079;DHT22;7115;50.150;8.568;2024-02-28T12:06:32;13.10;97.00
14079;DHT22;7115;50.150;8.568;2024-02-28T12:09:02;12.90;97.00
14079;DHT22;7115;50.150;8.568;2024-02-28T12:11:29;12.80;97.20
14079;DHT22;7115;50.150;8.568;2024-02-28T12:13:57;12.60;97.30
14079;DHT22;7115;50.150;8.568;2024-02-28T12:16:24;12.50;97.50
14079;DHT22;7115;50.150;8.568;2024-02-28T12:18:51;12.30;97.60
14079;DHT22;7115;50.150;8.568;2024-02-28T12:21:19;12.30;97.70
14079;DHT22;7115;50.150;8.568;2024-02-28T12:23:46;12.20;97.70
14079;DHT22;7115;50.150;8.568;2024-02-28T12:26:16;12.00;97.80
14079;DHT22;7115;50.150;8.568;2024-02-28T12:28:43;11.90;98.00
14079;DHT22;7115;50.150;8.568;2024-02-28T12:31:10;11.90;98.30
14079;DHT22;7115;50.150;8.568;2024-02-28T12:33:38;12.00;98.40
14079;DHT22;7115;50.150;8.568;2024-02-28T12:36:06;12.10;98.50
14079;DHT22;7115;50.150;8.568;2024-02-28T12:38:33;12.10;98.50
14079;DHT22;7115;50.150;8.568;2024-02-28T12:41:01;12.30;98.60
14079;DHT22;7115;50.150;8.568;2024-02-28T12:43:30;12.50;98.60
14079;DHT22;7115;50.150;8.568;2024-02-28T12:45:58;12.80;98.70
14079;DHT22;7115;50.150;8.568;2024-02-28T12:48:25;13.00;98.50
14079;DHT22;7115;50.150;8.568;2024-02-28T12:50:52;13.10;98.30
14079;DHT22;7115;50.150;8.568;2024-02-28T12:53:19;13.00;98.20
14079;DHT22;7115;50.150;8.568;2024-02-28T12:55:46;13.00;98.30
14079;DHT22;7115;50.150;8.568;2024-02-28T12:58:13;13.00;98.30
14079;DHT22;7115;50.150;8.568;2024-02-28T13:00:41;12.90;98.20
14079;DHT22;7115;50.150;8.568;2024-02-28T13:03:09;13.00;98.30
14079;DHT22;7115;50.150;8.568;2024-02-28T13:05:36;13.20;98.20
14079;DHT22;7115;50.150;8.568;2024-02-28T13:08:04;13.30;98.10
14079;DHT22;7115;50.150;8.568;2024-02-28T13:10:31;13.30;97.90
14079;DHT22;7115;50.150;8.568;2024-02-28T13:13:00;13.30;97.90
14079;DHT22;7115;50.150;8.568;2024-02-28T13:15:28;13.30;97.90
14079;DHT22;7115;50.150;8.568;2024-02-28T13:17:56;13.40;97.90
14079;DHT22;7115;50.150;8.568;2024-02-28T13:20:24;13.60;97.80
14079;DHT22;7115;50.150;8.568;2024-02-28T13:22:51;13.70;97.70
14079;DHT22;7115;50.150;8.568;2024-02-28T13:25:18;13.80;97.60
14079;DHT22;7115;50.150;8.568;2024-02-28T13:27:46;13.70;97.40
14079;DHT22;7115;50.150;8.568;2024-02-28T13:30:14;13.60;97.50
14079;DHT22;7115;50.150;8.568;2024-02-28T13:32:42;13.50;97.40
14079;DHT22;7115;50.150;8.568;2024-02-28T13:35:12;13.30;97.40
14079;DHT22;7115;50.150;8.568;2024-02-28T13:37:39;13.10;97.40
14079;DHT22;7115;50.150;8.568;2024-02-28T13:40:08;13.00;97.50
14079;DHT22;7115;50.150;8.568;2024-02-28T13:42:37;12.80;97.50
14079;DHT22;7115;50.150;8.568;2024-02-28T13:45:08;12.70;97.60
14079;DHT22;7115;50.150;8.568;2024-02-28T13:47:37;12.50;97.60
14079;DHT22;7115;50.150;8.568;2024-02-28T13:50:05;12.50;97.80
14079;DHT22;7115;50.150;8.568;2024-02-28T13:52:33;12.50;97.90
14079;DHT22;7115;50.150;8.568;2024-02-28T13:55:00;12.50;98.00
14079;DHT22;7115;50.150;8.568;2024-02-28T13:57:27;12.50;97.90
14079;DHT22;7115;50.150;8.568;2024-02-28T13:59:54;12.50;98.20
14079;DHT22;7115;50.150;8.568;2024-02-28T14:02:22;12.40;97.90
14079;DHT22;7115;50.150;8.568;2024-02-28T14:04:53;12.30;97.80
14079;DHT22;7115;50.150;8.568;2024-02-28T14:07:20;12.30;97.90
14079;DHT22;7115;50.150;8.568;2024-02-28T14:09:49;12.30;97.90
14079;DHT22;7115;50.150;8.568;2024-02-28T14:12:16;12.40;97.80
14079;DHT22;7115;50.150;8.568;2024-02-28T14:14:43;12.40;97.60
14079;DHT22;7115;50.150;8.568;2024-02-28T14:17:10;12.40;97.50
14079;DHT22;7115;50.150;8.568;2024-02-28T14:19:37;12.40;97.50
14079;DHT22;7115;50.150;8.568;2024-02-28T14:22:04;12.30;97.40
14079;DHT22;7115;50.150;8.568;2024-02-28T14:24:31;12.20;97.50
14079;DHT22;7115;50.150;8.568;2024-02-28T14:27:00;12.00;97.60
14079;DHT22;7115;50.150;8.568;2024-02-28T14:29:27;11.90;97.50
14079;DHT22;7115;50.150;8.568;2024-02-28T14:31:56;11.90;97.60
14079;DHT22;7115;50.150;8.568;2024-02-28T14:34:23;11.90;97.70
14079;DHT22;7115;50.150;8.568;2024-02-28T14:36:50;11.90;97.70
14079;DHT22;7115;50.150;8.568;2024-02-28T14:39:17;11.90;97.70
14079;DHT22;7115;50.150;8.568;2024-02-28T14:41:44;11.80;97.60
14079;DHT22;7115;50.150;8.568;2024-02-28T14:44:13;11.80;97.60
14079;DHT22;7115;50.150;8.568;2024-02-28T14:46:40;11.80;97.50
14079;DHT22;7115;50.150;8.568;2024-02-28T14:49:07;11.90;97.50
14079;DHT22;7115;50.150;8.568;2024-02-28T14:51:34;11.90;97.40
14079;DHT22;7115;50.150;8.568;2024-02-28T14:54:04;11.90;97.40
14079;DHT22;7115;50.150;8.568;2024-02-28T14:56:31;12.00;97.40
14079;DHT22;7115;50.150;8.568;2024-02-28T14:58:58;12.00;97.30
14079;DHT22;7115;50.150;8.568;2024-02-28T15:01:26;12.10;97.40
14079;DHT22;7115;50.150;8.568;2024-02-28T15:03:54;12.20;97.40
14079;DHT22;7115;50.150;8.568;2024-02-28T15:06:21;12.30;97.30
14079;DHT22;7115;50.150;8.568;2024-02-28T15:08:48;12.40;97.20
14079;DHT22;7115;50.150;8.568;2024-02-28T15:11:16;12.40;96.80
14079;DHT22;7115;50.150;8.568;2024-02-28T15:13:43;12.40;96.50
14079;DHT22;7115;50.150;8.568;2024-02-28T15:16:10;12.40;96.30
14079;DHT22;7115;50.150;8.568;2024-02-28T15:18:39;12.50;96.00
14079;DHT22;7115;50.150;8.568;2024-02-28T15:21:07;12.50;95.80
14079;DHT22;7115;50.150;8.568;2024-02-28T15:23:34;12.40;95.80
14079;DHT22;7115;50.150;8.568;2024-02-28T15:26:02;12.30;95.50
14079;DHT22;7115;50.150;8.568;2024-02-28T15:28:29;12.30;95.40
14079;DHT22;7115;50.150;8.568;2024-02-28T15:30:57;12.30;95.50
14079;DHT22;7115;50.150;8.568;2024-02-28T15:33:25;12.30;95.40
14079;DHT22;7115;50.150;8.568;2024-02-28T15:35:54;12.30;95.40
14079;DHT22;7115;50.150;8.568;2024-02-28T15:38:21;12.40;95.30
14079;DHT22;7115;50.150;8.568;2024-02-28T15:40:48;12.40;95.30
14079;DHT22;7115;50.150;8.568;2024-02-28T15:43:15;12.50;95.30
14079;DHT22;7115;50.150;8.568;2024-02-28T15:45:42;12.60;95.40
14079;DHT22;7115;50.150;8.568;2024-02-28T15:48:10;12.60;95.30
14079;DHT22;7115;50.150;8.568;2024-02-28T15:50:37;12.60;95.30
14079;DHT22;7115;50.150;8.568;2024-02-28T15:53:05;12.60;95.10
14079;DHT22;7115;50.150;8.568;2024-02-28T15:55:33;12.60;95.00